Time;durP1;ratioP1;P1;durP2;ratioP2;P2;SDS_P1;SDS_P2;PMS_P1;PMS_P2;Temp;Humidity;BMP_temperature;BMP_pressure;BME280_temperature;BME280_humidity;BME280_pressure;Samples;Min_cycle;Max_cycle;Signal;HPM_P1;HPM_P2
2022/03/17 00:02:30;;;;;;;24.63;16.52;;;10.60;99.90;;;;;;2125163;67;20184;-75
2022/03/17 00:05:13;;;;;;;21.73;15.90;;;10.60;99.90;;;;;;2120509;67;20565;-75
2022/03/17 00:07:55;;;;;;;22.83;15.65;;;10.70;99.90;;;;;;2104438;67;20171;-74
2022/03/17 00:10:40;;;;;;;25.73;16.92;;;10.60;99.90;;;;;;2088956;68;20196;-75
2022/03/17 00:13:22;;;;;;;21.25;15.05;;;10.60;99.90;;;;;;2089111;68;20377;-74
2022/03/17 00:16:06;;;;;;;22.13;15.77;;;10.60;99.90;;;;;;2085527;68;20253;-75
2022/03/17 00:18:52;;;;;;;20.42;15.20;;;10.60;99.90;;;;;;2104769;67;20343;-75
2022/03/17 00:21:40;;;;;;;21.45;15.52;;;10.60;99.90;;;;;;2091256;68;20199;-75
2022/03/17 00:24:22;;;;;;;27.02;15.82;;;10.60;99.90;;;;;;2110675;67;20217;-76
2022/03/17 00:27:06;;;;;;;22.48;15.52;;;10.70;99.90;;;;;;2111510;67;20331;-75
2022/03/17 00:29:50;;;;;;;26.45;16.67;;;10.60;99.90;;;;;;2118648;67;20273;-76
2022/03/17 00:32:32;;;;;;;21.80;15.65;;;10.60;99.90;;;;;;2111476;67;20431;-74
2022/03/17 00:38:18;;;;;;;23.48;16.20;;;10.60;99.90;;;;;;2125866;67;20392;-74
2022/03/17 00:41:04;;;;;;;23.25;16.98;;;10.50;99.90;;;;;;2127284;67;20234;-75
2022/03/17 00:43:49;;;;;;;24.40;17.13;;;10.50;99.90;;;;;;2132874;66;20174;-75
2022/03/17 00:46:36;;;;;;;24.70;16.73;;;10.50;99.90;;;;;;2133453;66;20317;-75
2022/03/17 00:49:19;;;;;;;23.08;15.63;;;10.60;99.90;;;;;;2139233;66;20197;-75
2022/03/17 00:52:11;;;;;;;22.63;17.00;;;10.50;99.90;;;;;;2131397;67;20260;-74
2022/03/17 00:54:57;;;;;;;23.45;16.70;;;10.50;99.90;;;;;;2128307;67;20226;-74
2022/03/17 00:57:40;;;;;;;24.52;16.35;;;10.50;99.90;;;;;;2126325;67;20300;-76
2022/03/17 01:00:23;;;;;;;20.45;14.93;;;10.50;99.90;;;;;;2126687;67;20290;-75
2022/03/17 01:03:08;;;;;;;21.88;15.63;;;10.50;99.90;;;;;;2122987;67;20265;-74
2022/03/17 01:05:52;;;;;;;27.65;17.60;;;10.50;99.90;;;;;;2127926;67;20287;-75
2022/03/17 01:08:34;;;;;;;22.90;17.05;;;10.50;99.90;;;;;;2124193;67;20280;-74
2022/03/17 01:11:18;;;;;;;22.90;16.90;;;10.50;99.90;;;;;;2116467;67;20246;-74
2022/03/17 01:14:03;;;;;;;19.63;16.13;;;10.50;99.90;;;;;;2117350;67;20435;-74
2022/03/17 01:16:48;;;;;;;22.67;16.52;;;10.50;99.90;;;;;;2119432;67;20284;-73
2022/03/17 01:19:30;;;;;;;23.65;17.73;;;10.50;99.90;;;;;;2123910;67;21079;-75
2022/03/17 01:22:12;;;;;;;24.95;18.05;;;10.50;99.90;;;;;;2113697;67;20178;-74
2022/03/17 01:24:55;;;;;;;22.88;16.40;;;10.50;99.90;;;;;;2112133;67;20219;-75
2022/03/17 01:27:37;;;;;;;23.38;16.60;;;10.50;99.90;;;;;;2118739;67;20349;-75
2022/03/17 01:30:23;;;;;;;23.30;16.25;;;10.50;99.90;;;;;;2118671;67;20181;-75
2022/03/17 01:33:05;;;;;;;23.15;16.38;;;10.40;99.90;;;;;;2111487;67;20173;-74
2022/03/17 01:35:47;;;;;;;24.00;16.05;;;10.40;99.90;;;;;;2108351;67;20258;-74
2022/03/17 01:38:29;;;;;;;23.15;16.25;;;10.40;99.90;;;;;;2110417;67;20787;-75
2022/03/17 01:41:12;;;;;;;24.42;16.60;;;10.50;99.90;;;;;;2111590;67;20667;-74
2022/03/17 01:43:56;;;;;;;23.27;15.80;;;10.40;99.90;;;;;;2118904;67;20189;-74
2022/03/17 01:49:40;;;;;;;25.25;17.33;;;10.40;99.90;;;;;;2130465;67;20184;-76
2022/03/17 01:52:22;;;;;;;24.70;17.58;;;10.30;99.90;;;;;;2157487;66;20215;-74
2022/03/17 01:55:09;;;;;;;24.85;17.42;;;10.30;99.90;;;;;;2160236;66;20335;-72
2022/03/17 01:57:51;;;;;;;25.50;17.15;;;10.30;99.90;;;;;;2157458;66;20196;-74
2022/03/17 02:00:33;;;;;;;27.45;17.70;;;10.30;99.90;;;;;;2169417;66;20380;-75
2022/03/17 02:03:14;;;;;;;24.50;17.35;;;10.30;99.90;;;;;;2157958;66;20240;-75
2022/03/17 02:05:56;;;;;;;25.88;16.98;;;10.20;99.90;;;;;;2138723;66;20726;-74
2022/03/17 02:08:39;;;;;;;26.02;17.40;;;10.30;99.90;;;;;;2133079;67;20198;-74
2022/03/17 02:14:26;;;;;;;23.90;16.58;;;10.30;99.90;;;;;;2127146;67;20344;-73
2022/03/17 02:17:11;;;;;;;24.88;17.88;;;10.30;99.90;;;;;;2119201;67;20244;-73
2022/03/17 02:19:54;;;;;;;25.67;18.15;;;10.40;99.90;;;;;;2124618;67;20176;-74
2022/03/17 02:22:44;;;;;;;24.13;17.20;;;10.40;99.90;;;;;;2123605;67;21034;-74
2022/03/17 02:25:35;;;;;;;22.25;17.25;;;10.40;99.90;;;;;;2116674;67;20359;-74
2022/03/17 02:28:18;;;;;;;25.30;18.13;;;10.40;99.90;;;;;;2118332;67;20217;-74
2022/03/17 02:31:01;;;;;;;25.25;18.33;;;10.40;99.90;;;;;;2113367;67;20204;-74
2022/03/17 02:33:46;;;;;;;25.08;16.98;;;10.40;99.90;;;;;;2119754;67;20361;-75
2022/03/17 02:36:31;;;;;;;27.52;17.75;;;10.40;99.90;;;;;;2132665;67;20316;-74
2022/03/17 02:39:17;;;;;;;26.13;18.83;;;10.50;99.90;;;;;;2130357;67;20797;-75
2022/03/17 02:42:05;;;;;;;23.55;16.75;;;10.40;99.90;;;;;;2137503;66;20187;-74
2022/03/17 02:44:48;;;;;;;26.20;17.35;;;10.50;99.90;;;;;;2139423;66;20253;-73
2022/03/17 02:47:32;;;;;;;25.63;17.30;;;10.50;99.90;;;;;;2134176;66;20424;-75
2022/03/17 02:50:16;;;;;;;;;;;10.50;99.90;;;;;;2132608;67;20191;-74
2022/03/17 02:53:05;;;;;;;22.67;15.75;;;10.50;99.90;;;;;;2146560;66;20101;-74
2022/03/17 02:55:47;;;;;;;23.70;17.60;;;10.50;99.90;;;;;;2144435;66;20184;-74
2022/03/17 02:58:31;;;;;;;23.88;16.83;;;10.50;99.90;;;;;;2118056;67;20269;-74
2022/03/17 03:01:17;;;;;;;24.90;16.45;;;10.50;99.90;;;;;;2111732;67;20278;-75
2022/03/17 03:04:03;;;;;;;26.92;18.30;;;10.50;99.90;;;;;;2117669;67;20172;-74
2022/03/17 03:06:49;;;;;;;23.08;17.15;;;10.50;99.90;;;;;;2098301;67;20333;-74
2022/03/17 03:09:36;;;;;;;25.80;17.52;;;10.60;99.90;;;;;;2101657;68;20201;-75
2022/03/17 03:12:20;;;;;;;23.23;16.85;;;10.50;99.90;;;;;;2106252;67;20888;-75
2022/03/17 03:15:04;;;;;;;24.40;16.85;;;10.60;99.90;;;;;;2123898;67;20755;-73
2022/03/17 03:17:47;;;;;;;25.73;17.60;;;10.60;99.90;;;;;;2118996;67;20808;-75
2022/03/17 03:20:32;;;;;;;23.73;18.02;;;10.60;99.90;;;;;;2116219;67;20182;-75
2022/03/17 03:23:16;;;;;;;22.70;17.33;;;10.60;99.90;;;;;;2108794;67;20376;-74
2022/03/17 03:26:01;;;;;;;25.33;18.23;;;10.60;99.90;;;;;;2107048;67;20275;-73
2022/03/17 03:28:46;;;;;;;24.98;17.83;;;10.60;99.90;;;;;;2109453;67;20205;-74
2022/03/17 03:31:28;;;;;;;24.55;18.17;;;10.60;99.90;;;;;;2116611;67;20427;-75
2022/03/17 03:34:09;;;;;;;26.63;17.80;;;10.70;99.90;;;;;;2121822;67;20705;-74
2022/03/17 03:39:53;;;;;;;24.70;18.58;;;10.70;99.90;;;;;;2125130;67;20282;-75
2022/03/17 03:42:36;;;;;;;25.90;19.02;;;10.80;99.90;;;;;;2119725;67;20247;-74
2022/03/17 03:45:22;;;;;;;27.98;19.05;;;10.70;99.90;;;;;;2115087;67;20376;-74
2022/03/17 03:48:04;;;;;;;25.30;18.92;;;10.80;99.90;;;;;;2097154;68;20584;-74
2022/03/17 03:50:46;;;;;;;22.73;18.30;;;10.90;99.90;;;;;;2100973;68;20441;-74
2022/03/17 03:54:12;;;;;;;25.58;17.67;;;10.80;99.90;;;;;;2107991;67;20198;-74
2022/03/17 03:56:31;;;;;;;24.75;19.58;;;10.80;99.90;;;;;;2122398;67;20187;-74
2022/03/17 03:59:21;;;;;;;31.00;19.15;;;10.90;99.90;;;;;;2126282;67;20196;-74
2022/03/17 04:02:10;;;;;;;24.70;17.67;;;10.90;99.90;;;;;;2129024;67;20183;-74
2022/03/17 04:04:52;;;;;;;26.92;20.25;;;10.90;99.90;;;;;;2115360;67;20173;-74
2022/03/17 04:07:34;;;;;;;30.33;20.73;;;10.90;99.90;;;;;;2103862;68;20422;-74
2022/03/17 04:10:16;;;;;;;28.05;21.55;;;10.80;99.90;;;;;;2102770;67;21222;-74
2022/03/17 04:12:58;;;;;;;33.90;21.65;;;10.70;99.90;;;;;;2103411;67;20512;-74
2022/03/17 04:15:41;;;;;;;32.45;21.52;;;10.50;99.90;;;;;;2116414;67;20299;-73
2022/03/17 04:18:24;;;;;;;31.70;22.75;;;10.40;99.90;;;;;;2116569;67;20268;-73
2022/03/17 04:21:09;;;;;;;31.08;21.83;;;10.10;99.90;;;;;;2124720;67;20199;-73
2022/03/17 04:23:51;;;;;;;30.23;23.55;;;9.90;99.90;;;;;;2125941;67;20262;-74
2022/03/17 04:26:33;;;;;;;34.53;25.48;;;9.80;99.90;;;;;;2132028;67;20264;-75
2022/03/17 04:29:15;;;;;;;32.63;23.45;;;9.60;99.90;;;;;;2130470;67;20443;-75
2022/03/17 04:31:57;;;;;;;34.60;25.33;;;9.50;99.90;;;;;;2133598;67;20202;-74
2022/03/17 04:34:39;;;;;;;37.53;26.20;;;9.40;99.90;;;;;;2151270;66;20481;-74
2022/03/17 04:37:25;;;;;;;38.92;25.00;;;9.30;99.90;;;;;;2153526;66;20397;-73
2022/03/17 04:40:11;;;;;;;37.25;27.02;;;9.20;99.90;;;;;;2148001;66;20749;-74
2022/03/17 04:42:56;;;;;;;42.42;28.75;;;9.20;99.90;;;;;;2131201;67;20216;-74
2022/03/17 04:45:39;;;;;;;38.30;27.45;;;9.10;99.90;;;;;;2141144;66;20318;-74
2022/03/17 04:48:21;;;;;;;47.33;30.98;;;9.10;99.90;;;;;;2131359;67;20360;-73
2022/03/17 04:51:03;;;;;;;46.60;32.13;;;9.10;99.90;;;;;;2131775;67;20205;-74
2022/03/17 04:53:46;;;;;;;49.55;32.15;;;9.00;99.90;;;;;;2144884;66;20218;-74
2022/03/17 04:56:31;;;;;;;56.33;33.97;;;9.00;99.90;;;;;;2147645;66;20206;-74
2022/03/17 04:59:13;;;;;;;58.67;37.17;;;9.10;99.90;;;;;;2154417;66;20198;-75
2022/03/17 05:01:55;;;;;;;56.05;36.83;;;9.00;99.90;;;;;;2148191;66;20396;-74
2022/03/17 05:04:40;;;;;;;64.38;41.35;;;9.00;99.90;;;;;;2145934;66;20190;-75
2022/03/17 05:07:23;;;;;;;80.35;44.10;;;8.90;99.90;;;;;;2135544;67;20175;-75
2022/03/17 05:10:06;;;;;;;80.22;43.78;;;8.90;99.90;;;;;;2146302;66;20284;-74
2022/03/17 05:12:49;;;;;;;74.03;41.17;;;8.90;99.90;;;;;;2143751;66;20214;-75
2022/03/17 05:15:31;;;;;;;76.18;43.65;;;9.00;99.90;;;;;;2139296;66;20587;-75
2022/03/17 05:18:13;;;;;;;55.20;30.65;;;9.00;99.90;;;;;;2142947;66;20630;-75
2022/03/17 05:20:55;;;;;;;24.02;15.82;;;9.00;99.90;;;;;;2147383;66;20202;-74
2022/03/17 05:23:38;;;;;;;19.08;11.60;;;8.90;99.90;;;;;;2153846;66;20307;-75
2022/03/17 05:26:22;;;;;;;20.38;12.63;;;8.80;99.90;;;;;;2132164;67;20317;-74
2022/03/17 05:29:06;;;;;;;18.40;13.35;;;8.70;99.90;;;;;;2148831;66;20179;-74
2022/03/17 05:31:49;;;;;;;20.17;13.95;;;8.50;99.90;;;;;;2145656;66;20191;-75
2022/03/17 05:34:35;;;;;;;17.60;11.45;;;8.40;99.90;;;;;;2144515;66;20425;-73
2022/03/17 05:37:20;;;;;;;14.18;10.00;;;8.40;99.90;;;;;;2146933;66;20280;-75
2022/03/17 05:40:21;;;;;;;17.42;10.85;;;8.30;99.90;;;;;;2146281;66;20245;-73
2022/03/17 05:43:06;;;;;;;16.42;10.57;;;8.20;99.90;;;;;;2105690;67;20326;-73
2022/03/17 05:45:48;;;;;;;13.63;10.25;;;8.00;99.90;;;;;;2111809;67;20274;-74
2022/03/17 05:48:30;;;;;;;15.40;10.35;;;8.00;99.90;;;;;;2125591;67;20200;-75
2022/03/17 05:51:12;;;;;;;14.52;10.05;;;7.90;99.90;;;;;;2093337;67;20352;-74
2022/03/17 05:53:55;;;;;;;22.33;12.50;;;7.90;99.90;;;;;;2090607;68;20196;-73
2022/03/17 05:56:39;;;;;;;;;;;7.80;99.90;;;;;;2095675;68;20224;-72
2022/03/17 05:59:21;;;;;;;21.00;13.05;;;7.70;99.90;;;;;;2118066;67;20078;-75
2022/03/17 06:02:04;;;;;;;23.00;14.85;;;7.60;99.90;;;;;;2120880;67;20332;-74
2022/03/17 06:04:46;;;;;;;24.30;13.10;;;7.60;99.90;;;;;;2132131;67;20167;-73
2022/03/17 06:08:01;;;;;;;22.08;13.80;;;7.60;99.90;;;;;;2125056;67;20787;-74
2022/03/17 06:10:43;;;;;;;25.75;13.27;;;7.50;99.90;;;;;;2120673;67;20204;-74
2022/03/17 06:13:30;;;;;;;19.13;12.23;;;7.50;99.90;;;;;;2121667;67;20259;-74
2022/03/17 06:16:15;;;;;;;26.25;12.73;;;7.70;99.90;;;;;;2108320;67;20631;-73
2022/03/17 06:18:57;;;;;;;17.08;9.52;;;7.50;99.90;;;;;;2110370;67;20193;-73
2022/03/17 06:21:39;;;;;;;18.48;8.88;;;7.50;99.90;;;;;;2116487;67;20264;-74
2022/03/17 06:24:21;;;;;;;15.32;7.00;;;7.40;99.90;;;;;;2112887;67;20261;-73
2022/03/17 06:27:05;;;;;;;11.55;5.82;;;7.40;99.90;;;;;;2112924;67;20646;-73
2022/03/17 06:29:49;;;;;;;15.38;7.13;;;7.40;99.90;;;;;;2122025;67;20351;-73
2022/03/17 06:32:32;;;;;;;10.93;6.80;;;7.40;99.90;;;;;;2095889;68;20329;-74
2022/03/17 06:35:19;;;;;;;9.05;6.10;;;7.40;99.90;;;;;;2088175;68;20203;-74
2022/03/17 06:38:07;;;;;;;13.55;5.90;;;7.40;99.90;;;;;;2099453;67;20347;-74
2022/03/17 06:40:53;;;;;;;15.95;6.28;;;7.40;99.90;;;;;;2100344;68;20187;-74
2022/03/17 06:43:39;;;;;;;;;;;7.40;99.90;;;;;;2097031;68;20862;-74
2022/03/17 06:46:24;;;;;;;15.00;5.63;;;7.20;99.90;;;;;;2099017;68;20054;-73
2022/03/17 06:49:08;;;;;;;10.93;4.97;;;7.40;99.90;;;;;;2096585;68;20282;-74
2022/03/17 06:51:55;;;;;;;13.07;4.93;;;7.40;99.90;;;;;;2098429;68;20212;-74
2022/03/17 06:54:40;;;;;;;10.48;3.72;;;7.50;99.90;;;;;;2102024;68;20203;-74
2022/03/17 06:57:27;;;;;;;7.72;4.00;;;7.40;99.90;;;;;;2108724;67;20811;-74
2022/03/17 07:00:14;;;;;;;9.82;3.47;;;7.40;99.90;;;;;;2104167;68;20178;-74
2022/03/17 07:02:56;;;;;;;7.03;2.85;;;7.50;99.90;;;;;;2111380;67;20368;-74
2022/03/17 07:05:38;;;;;;;8.10;2.47;;;7.40;99.90;;;;;;2116905;67;20270;-73
2022/03/17 07:08:21;;;;;;;6.43;2.53;;;7.50;99.90;;;;;;2108615;67;20360;-73
2022/03/17 07:11:04;;;;;;;7.88;2.83;;;7.40;99.90;;;;;;2098258;68;20282;-74
2022/03/17 07:13:52;;;;;;;4.90;1.88;;;7.40;99.90;;;;;;2105437;67;20680;-72
2022/03/17 07:16:34;;;;;;;3.75;1.70;;;7.40;99.90;;;;;;2112234;67;20170;-73
2022/03/17 07:19:17;;;;;;;6.45;1.50;;;7.40;99.90;;;;;;2104174;67;20178;-73
2022/03/17 07:21:59;;;;;;;6.57;2.42;;;7.40;99.90;;;;;;2104150;68;20179;-73
2022/03/17 07:24:44;;;;;;;5.47;1.88;;;7.40;99.90;;;;;;2103835;68;20250;-73
2022/03/17 07:27:25;;;;;;;3.58;1.75;;;7.50;99.90;;;;;;2122837;67;20184;-74
2022/03/17 07:30:34;;;;;;;7.80;2.22;;;7.40;99.90;;;;;;2121411;67;20712;-75
2022/03/17 07:33:16;;;;;;;9.93;2.60;;;7.40;99.90;;;;;;2120381;67;20700;-73
2022/03/17 07:36:04;;;;;;;6.87;1.60;;;7.40;99.90;;;;;;2122074;67;20238;-73
2022/03/17 07:38:46;;;;;;;7.07;1.83;;;7.40;99.90;;;;;;2116405;67;20353;-74
2022/03/17 07:41:29;;;;;;;7.05;1.95;;;7.40;99.90;;;;;;2109886;67;20315;-74
2022/03/17 07:44:14;;;;;;;9.18;2.17;;;7.40;99.90;;;;;;2104519;67;20239;-73
2022/03/17 07:46:57;;;;;;;9.55;3.22;;;7.30;99.90;;;;;;2098712;68;20331;-74
2022/03/17 07:49:40;;;;;;;9.77;1.95;;;7.40;99.90;;;;;;2110767;67;20254;-73
2022/03/17 07:52:25;;;;;;;7.68;2.00;;;7.40;99.90;;;;;;2118892;67;20391;-73
2022/03/17 07:55:08;;;;;;;9.00;2.05;;;7.40;99.90;;;;;;2124955;67;20176;-74
2022/03/17 07:57:52;;;;;;;9.20;2.20;;;7.40;99.90;;;;;;2118217;67;20334;-75
2022/03/17 08:00:38;;;;;;;5.45;1.88;;;7.40;99.90;;;;;;2099818;68;20282;-74
2022/03/17 08:03:27;;;;;;;11.23;1.85;;;7.40;99.90;;;;;;2101431;67;20838;-74
2022/03/17 08:06:13;;;;;;;;;;;7.40;99.90;;;;;;2099096;68;20342;-74
2022/03/17 08:08:55;;;;;;;8.13;2.13;;;7.50;99.90;;;;;;2097046;68;20234;-75
2022/03/17 08:11:37;;;;;;;6.60;2.20;;;7.50;99.90;;;;;;2093018;68;20175;-73
2022/03/17 08:14:19;;;;;;;10.95;2.13;;;7.50;99.90;;;;;;2083225;68;20295;-74
2022/03/17 08:17:01;;;;;;;7.78;2.60;;;7.50;99.90;;;;;;2078353;68;20329;-74
2022/03/17 08:19:44;;;;;;;9.13;2.63;;;7.50;99.90;;;;;;2093049;68;20378;-73
2022/03/17 08:22:26;;;;;;;11.48;3.00;;;7.50;99.90;;;;;;2090989;68;20726;-74
2022/03/17 08:25:09;;;;;;;12.85;3.15;;;7.60;99.90;;;;;;2105671;67;20236;-76
2022/03/17 08:27:51;;;;;;;13.02;2.67;;;7.60;99.90;;;;;;2109970;67;20201;-75
2022/03/17 08:30:36;;;;;;;10.27;1.65;;;7.60;99.90;;;;;;2117501;67;20623;-74
2022/03/17 08:33:23;;;;;;;14.73;3.35;;;7.60;99.90;;;;;;2131107;67;20916;-73
2022/03/17 08:36:08;;;;;;;16.70;3.28;;;7.70;99.90;;;;;;2150691;66;20347;-75
2022/03/17 08:39:06;;;;;;;10.55;2.60;;;7.80;99.90;;;;;;2151980;66;20203;-75
2022/03/17 08:41:48;;;;;;;8.70;2.55;;;7.80;99.90;;;;;;2139236;67;20379;-75
2022/03/17 08:44:30;;;;;;;12.13;2.38;;;7.80;99.90;;;;;;2132961;67;20441;-73
2022/03/17 08:50:13;;;;;;;10.52;1.70;;;7.90;99.90;;;;;;2118635;67;20343;-74
2022/03/17 08:52:55;;;;;;;4.78;1.50;;;7.90;99.90;;;;;;2132021;67;20605;-74
2022/03/17 08:55:40;;;;;;;7.35;2.00;;;7.80;99.90;;;;;;2121922;67;20231;-74
2022/03/17 08:58:24;;;;;;;6.90;1.70;;;7.80;99.90;;;;;;2133118;67;20369;-77
2022/03/17 09:01:08;;;;;;;9.23;1.98;;;7.80;99.90;;;;;;2130564;67;20292;-73
2022/03/17 09:03:53;;;;;;;7.68;2.28;;;7.80;99.90;;;;;;2131461;67;20200;-75
2022/03/17 09:06:38;;;;;;;11.10;2.40;;;7.90;99.90;;;;;;2126159;67;20176;-73
2022/03/17 09:09:20;;;;;;;5.72;2.13;;;7.90;99.90;;;;;;2133234;67;20215;-76
2022/03/17 09:12:07;;;;;;;8.75;2.60;;;8.10;99.90;;;;;;2133413;67;20250;-74
2022/03/17 09:14:52;;;;;;;7.68;3.05;;;8.20;99.90;;;;;;2127617;67;20230;-76
2022/03/17 09:17:33;;;;;;;8.75;2.40;;;8.30;99.90;;;;;;2139499;67;20669;-74
2022/03/17 09:20:16;;;;;;;12.55;2.58;;;8.40;99.90;;;;;;2140197;67;20319;-77
2022/03/17 09:22:58;;;;;;;9.27;2.30;;;8.40;99.90;;;;;;2139904;66;20697;-75
2022/03/17 09:25:40;;;;;;;6.68;2.33;;;8.30;99.90;;;;;;2145257;66;20776;-74
2022/03/17 09:28:23;;;;;;;8.73;1.92;;;8.30;99.90;;;;;;2141556;66;20629;-77
2022/03/17 09:31:08;;;;;;;10.15;2.67;;;8.40;99.90;;;;;;2140993;66;20330;-72
2022/03/17 09:33:50;;;;;;;14.68;3.00;;;8.40;99.90;;;;;;2159899;66;20194;-73
2022/03/17 09:36:32;;;;;;;11.68;2.40;;;8.60;99.90;;;;;;2155234;66;20491;-74
2022/03/17 09:42:25;;;;;;;8.75;1.80;;;8.90;99.90;;;;;;2147391;66;20931;-74
2022/03/17 09:45:12;;;;;;;8.07;2.03;;;9.00;99.90;;;;;;2140188;66;20420;-75
2022/03/17 09:47:57;;;;;;;6.55;2.50;;;9.00;99.90;;;;;;2150560;66;20182;-74
2022/03/17 09:53:53;;;;;;;7.85;1.70;;;9.20;99.90;;;;;;2135859;67;20320;-74
2022/03/17 09:56:37;;;;;;;12.43;2.65;;;9.20;99.90;;;;;;2139573;67;20242;-75
2022/03/17 09:59:22;;;;;;;;;;;9.30;99.90;;;;;;2141806;66;20637;-75
2022/03/17 10:02:06;;;;;;;9.77;2.10;;;9.40;99.90;;;;;;2142452;66;20213;-74
2022/03/17 10:04:49;;;;;;;7.07;2.22;;;9.50;99.90;;;;;;2152022;66;20756;-73
2022/03/17 10:07:39;;;;;;;14.00;2.10;;;9.50;99.90;;;;;;2146167;66;20423;-75
2022/03/17 10:10:35;;;;;;;12.48;2.45;;;9.60;99.90;;;;;;2146892;66;20323;-77
2022/03/17 10:13:19;;;;;;;8.13;2.05;;;9.70;99.90;;;;;;2164222;66;20227;-75
2022/03/17 10:16:22;;;;;;;6.82;2.33;;;9.80;99.90;;;;;;2161934;66;20293;-75
2022/03/17 10:19:08;;;;;;;5.72;2.65;;;10.00;99.90;;;;;;2162725;66;20177;-75
2022/03/17 10:21:50;;;;;;;6.18;2.00;;;10.10;99.90;;;;;;2158764;66;20199;-74
2022/03/17 10:24:37;;;;;;;9.05;2.17;;;10.10;99.90;;;;;;2154680;66;20418;-73
2022/03/17 10:27:40;;;;;;;5.93;2.10;;;10.50;99.90;;;;;;2169681;66;20231;-76
2022/03/17 10:30:33;;;;;;;9.10;1.88;;;10.30;99.90;;;;;;2160545;66;20256;-77
2022/03/17 10:33:20;;;;;;;9.80;1.90;;;10.40;99.90;;;;;;2147361;66;20242;-75
2022/03/17 10:36:20;;;;;;;13.52;2.65;;;10.40;99.90;;;;;;2141359;66;20175;-75
2022/03/17 10:39:08;;;;;;;9.20;2.13;;;10.40;99.90;;;;;;2151929;66;20223;-75
2022/03/17 10:41:51;;;;;;;9.80;2.33;;;10.30;99.90;;;;;;2144839;66;20330;-77
2022/03/17 10:44:34;;;;;;;7.05;2.35;;;10.20;99.90;;;;;;2158681;66;20343;-74
2022/03/17 10:47:37;;;;;;;8.07;2.08;;;10.10;99.90;;;;;;2150515;66;20178;-75
2022/03/17 10:50:20;;;;;;;8.52;2.50;;;10.10;99.90;;;;;;2143503;66;20178;-76
2022/03/17 10:53:03;;;;;;;6.53;2.40;;;10.10;99.90;;;;;;2146993;66;20316;-76
2022/03/17 10:55:49;;;;;;;;;;;10.20;99.90;;;;;;2161566;66;20283;-75
2022/03/17 10:58:42;;;;;;;9.40;2.50;;;10.50;99.90;;;;;;2169155;66;20629;-78
2022/03/17 11:01:45;;;;;;;8.05;2.55;;;10.90;99.90;;;;;;2165810;66;20390;-77
2022/03/17 11:04:31;;;;;;;8.97;2.43;;;11.20;99.90;;;;;;2159557;66;20392;-80
2022/03/17 11:07:16;;;;;;;7.47;2.38;;;11.70;99.90;;;;;;2140112;67;20734;-80
2022/03/17 11:10:07;;;;;;;9.65;2.30;;;11.90;99.90;;;;;;2126357;67;20469;-76
2022/03/17 11:12:50;;;;;;;8.68;2.35;;;12.00;99.90;;;;;;2122803;67;20236;-76
2022/03/17 11:15:34;;;;;;;9.15;2.50;;;12.50;99.90;;;;;;2111502;67;20248;-78
2022/03/17 11:18:21;;;;;;;10.27;2.38;;;12.80;99.30;;;;;;2118482;67;20317;-77
2022/03/17 11:21:12;;;;;;;5.68;1.83;;;12.70;98.00;;;;;;2123059;67;20608;-77
2022/03/17 11:24:06;;;;;;;8.98;3.08;;;12.60;97.10;;;;;;2120396;67;20249;-75
2022/03/17 11:27:09;;;;;;;8.70;2.92;;;12.50;97.80;;;;;;2139986;67;20238;-77
2022/03/17 11:29:52;;;;;;;6.50;2.38;;;12.30;92.80;;;;;;2137338;66;20914;-78
2022/03/17 11:32:34;;;;;;;8.77;2.50;;;12.10;96.00;;;;;;2140258;66;20227;-78
2022/03/17 11:35:19;;;;;;;8.93;2.92;;;12.00;96.30;;;;;;2130162;67;20184;-77
2022/03/17 11:38:18;;;;;;;9.68;2.03;;;11.90;96.70;;;;;;2139588;67;20557;-75
2022/03/17 11:41:22;;;;;;;8.50;2.50;;;12.30;95.00;;;;;;2147400;66;20353;-75
2022/03/17 11:44:05;;;;;;;8.82;2.13;;;12.50;92.60;;;;;;1921562;66;15102700;-73
2022/03/17 11:46:48;;;;;;;5.85;1.80;;;12.20;92.00;;;;;;2136183;67;20330;-74
2022/03/17 11:49:30;;;;;;;8.30;2.92;;;12.00;92.90;;;;;;2142610;66;20796;-72
2022/03/17 11:52:13;;;;;;;6.68;2.00;;;12.10;93.10;;;;;;2122600;67;20358;-73
2022/03/17 11:55:30;;;;;;;8.60;2.30;;;12.50;93.00;;;;;;2119911;67;20308;-74
2022/03/17 11:58:31;;;;;;;6.78;1.70;;;13.30;89.20;;;;;;2126808;67;20340;-73
2022/03/17 12:01:28;;;;;;;8.95;2.45;;;13.90;80.90;;;;;;2133113;67;20241;-73
2022/03/17 12:04:42;;;;;;;7.18;2.78;;;14.10;74.40;;;;;;2137039;67;20278;-72
2022/03/17 12:07:24;;;;;;;3.47;1.80;;;14.50;77.70;;;;;;2132464;67;20179;-76
2022/03/17 12:10:10;;;;;;;6.25;1.75;;;14.80;75.00;;;;;;2116159;67;20189;-76
2022/03/17 12:12:51;;;;;;;11.60;2.45;;;15.20;71.60;;;;;;2130434;67;20230;-74
2022/03/17 12:15:39;;;;;;;5.85;2.10;;;15.70;70.70;;;;;;2133456;67;20541;-75
2022/03/17 12:18:21;;;;;;;8.38;2.47;;;16.30;67.10;;;;;;2153819;66;20252;-74
2022/03/17 12:21:04;;;;;;;5.10;2.00;;;16.80;64.20;;;;;;2141234;66;20384;-74
2022/03/17 12:23:49;;;;;;;6.68;2.00;;;16.70;64.90;;;;;;2143795;66;20320;-75
2022/03/17 12:26:31;;;;;;;8.27;2.30;;;16.80;62.10;;;;;;2141552;66;20258;-75
2022/03/17 12:29:13;;;;;;;4.18;2.08;;;17.40;61.90;;;;;;2146971;66;20182;-76
2022/03/17 12:31:57;;;;;;;5.63;2.20;;;17.90;58.80;;;;;;2141554;66;20171;-75
2022/03/17 12:34:45;;;;;;;6.70;1.70;;;17.80;58.00;;;;;;2133629;67;20297;-75
2022/03/17 12:37:29;;;;;;;6.97;1.90;;;17.80;55.90;;;;;;2139345;66;20453;-74
2022/03/17 12:40:18;;;;;;;4.95;1.90;;;18.10;55.30;;;;;;2123815;67;20321;-75
2022/03/17 12:43:10;;;;;;;6.32;2.20;;;17.80;55.60;;;;;;2124963;67;20241;-75
2022/03/17 12:45:56;;;;;;;6.63;1.98;;;17.50;55.10;;;;;;2139168;67;20228;-75
2022/03/17 12:48:41;;;;;;;5.78;2.03;;;17.40;56.00;;;;;;2132658;67;20280;-79
2022/03/17 12:51:21;;;;;;;9.65;2.50;;;17.60;55.80;;;;;;2127343;67;20234;-79
2022/03/17 12:54:02;;;;;;;5.97;2.00;;;18.10;55.10;;;;;;2125256;67;20224;-74
2022/03/17 12:56:53;;;;;;;8.15;3.30;;;18.60;53.80;;;;;;2125317;67;20209;-75
2022/03/17 12:59:30;;;;;;;5.13;2.10;;;19.30;53.80;;;;;;2125094;67;20265;-76
2022/03/17 13:02:08;;;;;;;8.05;2.00;;;19.80;51.70;;;;;;2137988;66;20360;-76
2022/03/17 13:04:50;;;;;;;7.47;2.47;;;19.90;51.10;;;;;;2146698;66;20585;-75
2022/03/17 13:07:27;;;;;;;10.57;2.50;;;19.90;51.50;;;;;;2151673;66;20177;-76
2022/03/17 13:10:06;;;;;;;5.65;1.83;;;20.40;51.50;;;;;;2161057;66;20280;-76
2022/03/17 13:16:06;;;;;;;6.82;2.00;;;21.10;50.00;;;;;;2163190;65;20243;-77
2022/03/17 13:18:57;;;;;;;5.75;1.63;;;21.50;48.10;;;;;;2170888;65;20687;-75
2022/03/17 13:21:36;;;;;;;8.55;2.80;;;22.00;47.20;;;;;;2183376;65;20236;-76
2022/03/17 13:24:26;;;;;;;5.45;1.90;;;22.40;46.00;;;;;;2168331;66;20184;-76
2022/03/17 13:27:08;;;;;;;12.15;2.58;;;22.00;45.20;;;;;;2167219;66;20487;-77
2022/03/17 13:29:54;;;;;;;5.53;1.83;;;22.40;44.20;;;;;;2168591;66;20397;-76
2022/03/17 13:32:30;;;;;;;5.43;1.85;;;22.40;43.80;;;;;;2168631;66;20172;-77
2022/03/17 13:35:13;;;;;;;4.32;2.75;;;22.30;45.10;;;;;;2174891;65;20196;-75
2022/03/17 13:37:46;;;;;;;3.78;1.60;;;22.50;44.40;;;;;;2195605;65;20197;-74
2022/03/17 13:40:22;;;;;;;3.83;1.60;;;22.40;43.70;;;;;;2199559;65;20177;-75
2022/03/17 13:43:33;;;;;;;5.38;1.73;;;22.00;43.00;;;;;;2199475;65;20636;-75
2022/03/17 13:46:21;;;;;;;5.50;2.25;;;22.10;43.00;;;;;;2199639;65;20173;-72
2022/03/17 13:48:50;;;;;;;6.55;1.75;;;22.20;42.70;;;;;;2199294;65;20247;-75
2022/03/17 13:51:32;;;;;;;5.47;1.45;;;22.20;43.10;;;;;;2199199;65;20254;-75
2022/03/17 13:54:16;;;;;;;6.10;1.90;;;22.10;43.30;;;;;;2191781;65;20761;-74
2022/03/17 13:57:01;;;;;;;3.55;1.38;;;22.30;41.50;;;;;;2199391;65;20618;-74
2022/03/17 13:59:43;;;;;;;4.88;1.48;;;22.40;41.60;;;;;;2191794;65;20456;-73
2022/03/17 14:02:25;;;;;;;6.43;1.80;;;22.70;41.50;;;;;;2176930;65;20314;-74
2022/03/17 14:05:15;;;;;;;5.65;1.40;;;22.70;40.80;;;;;;2170339;66;20267;-74
2022/03/17 14:07:57;;;;;;;3.45;1.42;;;22.90;39.70;;;;;;2170912;66;20198;-76
2022/03/17 14:10:41;;;;;;;3.85;1.02;;;22.50;40.50;;;;;;2163297;66;20218;-76
2022/03/17 14:13:26;;;;;;;5.03;2.03;;;22.50;41.00;;;;;;2155893;66;20246;-75
2022/03/17 14:16:12;;;;;;;5.18;1.70;;;22.90;40.90;;;;;;2147413;66;20706;-75
2022/03/17 14:19:10;;;;;;;5.70;1.67;;;23.10;40.60;;;;;;2147180;66;20267;-74
2022/03/17 14:24:52;;;;;;;5.75;1.63;;;22.90;39.80;;;;;;2132204;67;20324;-75
2022/03/17 14:27:35;;;;;;;5.82;1.50;;;23.00;40.20;;;;;;2132770;67;20287;-75
2022/03/17 14:30:19;;;;;;;4.05;1.20;;;22.60;39.80;;;;;;2139550;66;20311;-76
2022/03/17 14:33:01;;;;;;;4.72;1.42;;;22.40;39.90;;;;;;2134841;67;20766;-75
2022/03/17 14:35:52;;;;;;;4.65;1.20;;;22.30;40.10;;;;;;2138304;66;20220;-76
2022/03/17 14:38:37;;;;;;;4.75;1.70;;;22.10;40.30;;;;;;2130825;67;20737;-74
2022/03/17 14:41:41;;;;;;;4.05;1.58;;;21.50;40.90;;;;;;2124706;67;20366;-75
2022/03/17 14:44:43;;;;;;;4.10;1.40;;;21.10;41.40;;;;;;2118514;67;20367;-75